Time;durP1;ratioP1;P1;durP2;ratioP2;P2;SDS_P1;SDS_P2;PMS_P1;PMS_P2;Temp;Humidity;BMP_temperature;BMP_pressure;BME280_temperature;BME280_humidity;BME280_pressure;Samples;Min_cycle;Max_cycle;Signal;HPM_P1;HPM_P2
2022/01/23 00:01:47;;;;;;;46.63;20.83;;;;;;;;;;5066365;28;20213;-77
2022/01/23 00:04:14;;;;;;;46.23;20.43;;;;;;;;;;5067718;28;20222;-76
2022/01/23 00:06:41;;;;;;;42.47;17.97;;;;;;;;;;5064133;28;20202;-76
2022/01/23 00:09:10;;;;;;;45.93;18.97;;;;;;;;;;5065830;28;20667;-76
2022/01/23 00:11:43;;;;;;;47.67;20.10;;;;;;;;;;5065189;28;20212;-76
2022/01/23 00:17:17;;;;;;;47.97;19.80;;;;;;;;;;5063587;28;20715;-77
2022/01/23 00:19:44;;;;;;;49.43;20.30;;;;;;;;;;5067073;28;20728;-76
2022/01/23 00:22:12;;;;;;;48.63;19.77;;;;;;;;;;5065636;28;20734;-77
2022/01/23 00:30:25;;;;;;;52.90;21.10;;;;;;;;;;5064108;28;20539;-76
2022/01/23 00:32:52;;;;;;;52.77;21.20;;;;;;;;;;5066652;28;20315;-76
2022/01/23 00:35:19;;;;;;;45.53;18.63;;;;;;;;;;5065030;28;20222;-76
2022/01/23 00:37:46;;;;;;;49.23;20.30;;;;;;;;;;5063807;28;20295;-76
2022/01/23 00:40:15;;;;;;;52.97;20.60;;;;;;;;;;5065405;28;20297;-76
2022/01/23 00:42:42;;;;;;;51.07;19.53;;;;;;;;;;5062929;28;20233;-76
2022/01/23 00:45:26;;;;;;;55.83;19.97;;;;;;;;;;5063090;28;20215;-76
2022/01/23 00:47:56;;;;;;;45.10;19.40;;;;;;;;;;5065073;28;20575;-76
2022/01/23 00:50:23;;;;;;;50.37;21.10;;;;;;;;;;5063599;28;20289;-76
2022/01/23 00:52:51;;;;;;;48.53;20.43;;;;;;;;;;5063400;28;20225;-76
2022/01/23 00:55:19;;;;;;;46.03;19.70;;;;;;;;;;5064331;28;20258;-76
2022/01/23 00:57:46;;;;;;;51.00;20.27;;;;;;;;;;5064723;28;20202;-76
2022/01/23 01:00:14;;;;;;;48.20;20.03;;;;;;;;;;5066490;28;20202;-76
2022/01/23 01:02:42;;;;;;;47.10;19.87;;;;;;;;;;5065694;28;20597;-76
2022/01/23 01:05:09;;;;;;;54.90;20.03;;;;;;;;;;5061539;28;20306;-76
2022/01/23 01:07:36;;;;;;;50.50;19.70;;;;;;;;;;5065136;28;20206;-76
2022/01/23 01:10:09;;;;;;;49.43;19.17;;;;;;;;;;5063974;28;20374;-76
2022/01/23 01:12:41;;;;;;;47.83;19.27;;;;;;;;;;5064736;28;20278;-76
2022/01/23 01:15:40;;;;;;;47.13;19.53;;;;;;;;;;5061874;28;20218;-76
2022/01/23 01:31:58;;;;;;;48.03;19.83;;;;;;;;;;5063594;28;20526;-76
2022/01/23 01:34:33;;;;;;;44.73;18.60;;;;;;;;;;5061826;28;20226;-76
2022/01/23 01:37:01;;;;;;;45.93;19.83;;;;;;;;;;5062138;28;20264;-76
2022/01/23 01:39:29;;;;;;;48.40;18.40;;;;;;;;;;5058155;28;20202;-76
2022/01/23 01:41:57;;;;;;;45.20;18.37;;;;;;;;;;5063732;28;20226;-76
2022/01/23 01:44:25;;;;;;;46.17;18.23;;;;;;;;;;5058274;28;20226;-76
2022/01/23 01:46:53;;;;;;;50.97;19.93;;;;;;;;;;5059962;28;20297;-76
2022/01/23 01:49:27;;;;;;;48.07;19.43;;;;;;;;;;5061310;28;21512;-76
2022/01/23 01:51:54;;;;;;;49.57;19.60;;;;;;;;;;5062423;28;20207;-76
2022/01/23 01:54:24;;;;;;;50.03;19.43;;;;;;;;;;5061202;28;20416;-76
2022/01/23 01:56:54;;;;;;;47.60;19.03;;;;;;;;;;5061025;28;20259;-76
2022/01/23 02:10:21;;;;;;;41.53;15.53;;;;;;;;;;5061877;28;20210;-76
2022/01/23 02:16:18;;;;;;;51.53;18.63;;;;;;;;;;5060921;28;20250;-76
2022/01/23 02:24:59;;;;;;;48.27;18.50;;;;;;;;;;5061680;28;20583;-76
2022/01/23 02:52:19;;;;;;;42.40;17.30;;;;;;;;;;5062452;28;20209;-76
2022/01/23 02:54:58;;;;;;;42.87;17.03;;;;;;;;;;5062296;28;20206;-77
2022/01/23 02:57:39;;;;;;;45.63;18.23;;;;;;;;;;5063472;28;20319;-77
2022/01/23 03:00:12;;;;;;;50.20;18.73;;;;;;;;;;5063926;28;20210;-77
2022/01/23 03:02:43;;;;;;;46.13;18.03;;;;;;;;;;5065914;28;20262;-77
2022/01/23 03:05:13;;;;;;;42.37;17.03;;;;;;;;;;5064510;28;20203;-77
2022/01/23 03:08:02;;;;;;;47.70;18.10;;;;;;;;;;5063465;28;20650;-77
2022/01/23 03:10:35;;;;;;;48.93;17.83;;;;;;;;;;5067094;28;20202;-77
2022/01/23 03:16:12;;;;;;;45.50;17.83;;;;;;;;;;5062514;28;20217;-77
2022/01/23 03:24:28;;;;;;;44.57;17.57;;;;;;;;;;5062919;28;20489;-77
2022/01/23 03:27:04;;;;;;;51.03;18.23;;;;;;;;;;5063724;28;20206;-77
2022/01/23 03:29:51;;;;;;;53.03;20.27;;;;;;;;;;5063442;28;20221;-76
2022/01/23 03:32:24;;;;;;;47.23;18.80;;;;;;;;;;5063952;28;20221;-77
2022/01/23 03:34:51;;;;;;;54.87;20.33;;;;;;;;;;5062622;28;20206;-76
2022/01/23 03:37:18;;;;;;;52.87;20.03;;;;;;;;;;5064542;28;20249;-77
2022/01/23 03:39:47;;;;;;;44.63;17.37;;;;;;;;;;5065430;28;20203;-77
2022/01/23 03:42:15;;;;;;;51.43;18.63;;;;;;;;;;5063489;28;20326;-76
2022/01/23 03:44:54;;;;;;;47.67;17.37;;;;;;;;;;5067498;28;20237;-76
2022/01/23 03:47:31;;;;;;;40.53;16.40;;;;;;;;;;5063269;28;20209;-77
2022/01/23 03:49:58;;;;;;;40.33;15.30;;;;;;;;;;5063539;28;20673;-77
2022/01/23 03:52:26;;;;;;;37.33;14.60;;;;;;;;;;5064859;28;20206;-77
2022/01/23 03:54:53;;;;;;;34.40;13.97;;;;;;;;;;5064424;28;20198;-77
2022/01/23 03:57:22;;;;;;;33.13;13.77;;;;;;;;;;5063687;28;20297;-77
2022/01/23 03:59:49;;;;;;;21.83;9.13;;;;;;;;;;5067223;28;20624;-77
2022/01/23 04:02:17;;;;;;;24.60;8.73;;;;;;;;;;5065198;28;20211;-77
2022/01/23 04:04:44;;;;;;;15.03;6.30;;;;;;;;;;5064376;28;20260;-77
2022/01/23 04:07:14;;;;;;;18.47;7.50;;;;;;;;;;5065017;28;20252;-77
2022/01/23 04:09:42;;;;;;;18.77;8.20;;;;;;;;;;5062341;28;20666;-77
2022/01/23 04:12:15;;;;;;;17.27;7.67;;;;;;;;;;5066552;28;20202;-77
2022/01/23 04:14:50;;;;;;;17.87;7.33;;;;;;;;;;5057927;28;20580;-78
2022/01/23 04:20:22;;;;;;;16.07;7.33;;;;;;;;;;5056676;28;20219;-77
2022/01/23 04:33:53;;;;;;;16.10;6.30;;;;;;;;;;5062609;28;20229;-77
2022/01/23 05:01:24;;;;;;;16.77;7.27;;;;;;;;;;5040915;28;20682;-77
2022/01/23 05:06:46;;;;;;;18.10;7.67;;;;;;;;;;5061974;28;20672;-77
2022/01/23 05:09:14;;;;;;;23.07;9.03;;;;;;;;;;5064511;28;20210;-77
2022/01/23 05:11:47;;;;;;;17.87;8.37;;;;;;;;;;5063901;28;20315;-77
2022/01/23 05:14:15;;;;;;;18.60;8.30;;;;;;;;;;5064668;28;20228;-77
2022/01/23 05:16:42;;;;;;;18.13;7.93;;;;;;;;;;5063497;28;20600;-77
2022/01/23 05:19:11;;;;;;;18.53;7.87;;;;;;;;;;5061886;28;20686;-77
2022/01/23 05:21:59;;;;;;;16.33;6.93;;;;;;;;;;5059315;28;20588;-77
2022/01/23 05:24:32;;;;;;;16.93;7.23;;;;;;;;;;5061751;28;20226;-77
2022/01/23 05:27:00;;;;;;;21.50;8.17;;;;;;;;;;5061623;28;20241;-77
2022/01/23 05:29:27;;;;;;;18.03;7.90;;;;;;;;;;5061074;28;20233;-77
2022/01/23 05:31:54;;;;;;;19.73;7.90;;;;;;;;;;5063850;28;20234;-77
2022/01/23 05:34:24;;;;;;;17.53;7.80;;;;;;;;;;5061335;28;20226;-77
2022/01/23 05:36:51;;;;;;;19.80;8.27;;;;;;;;;;5062995;28;20230;-77
2022/01/23 05:39:21;;;;;;;22.20;8.37;;;;;;;;;;5062614;28;20305;-77
2022/01/23 05:41:52;;;;;;;20.33;8.40;;;;;;;;;;5060734;28;20223;-77
2022/01/23 05:44:19;;;;;;;18.70;8.23;;;;;;;;;;5061050;28;20779;-77
2022/01/23 05:46:47;;;;;;;21.03;9.07;;;;;;;;;;5062731;28;20201;-77
2022/01/23 05:49:14;;;;;;;20.03;9.43;;;;;;;;;;5063075;28;20297;-77
2022/01/23 05:51:42;;;;;;;18.53;8.13;;;;;;;;;;5062463;28;20237;-77
2022/01/23 05:54:10;;;;;;;22.40;9.13;;;;;;;;;;5062485;28;20593;-77
2022/01/23 05:56:37;;;;;;;18.87;8.40;;;;;;;;;;5063589;28;20668;-77
2022/01/23 05:59:04;;;;;;;23.00;9.30;;;;;;;;;;5065703;28;20771;-77
2022/01/23 06:01:31;;;;;;;23.10;9.20;;;;;;;;;;5063257;28;20206;-77
2022/01/23 06:03:58;;;;;;;21.80;9.10;;;;;;;;;;5064549;28;20257;-77
2022/01/23 06:06:25;;;;;;;20.17;9.20;;;;;;;;;;5063070;28;20456;-77
2022/01/23 06:08:54;;;;;;;21.93;8.90;;;;;;;;;;5061550;28;20294;-77
2022/01/23 06:11:21;;;;;;;27.40;10.13;;;;;;;;;;5059159;28;20640;-77
2022/01/23 06:13:48;;;;;;;25.87;9.87;;;;;;;;;;5058495;28;20222;-77
2022/01/23 06:16:15;;;;;;;24.17;10.13;;;;;;;;;;5060647;28;20225;-77
2022/01/23 06:18:44;;;;;;;20.57;8.93;;;;;;;;;;5060833;28;20209;-77
2022/01/23 06:21:12;;;;;;;25.20;9.73;;;;;;;;;;5064981;28;20632;-77
2022/01/23 06:23:39;;;;;;;24.10;10.50;;;;;;;;;;5062185;28;20316;-77
2022/01/23 06:26:07;;;;;;;22.93;9.60;;;;;;;;;;5063805;28;20436;-77
2022/01/23 06:28:39;;;;;;;23.93;9.47;;;;;;;;;;5061068;28;20241;-77
2022/01/23 06:31:06;;;;;;;21.00;9.50;;;;;;;;;;5064502;28;20216;-78
2022/01/23 06:33:33;;;;;;;26.20;11.43;;;;;;;;;;5064013;28;20233;-77
2022/01/23 06:36:02;;;;;;;22.60;9.57;;;;;;;;;;5069469;28;20228;-77
2022/01/23 06:38:29;;;;;;;24.00;9.80;;;;;;;;;;5066624;28;20225;-77
2022/01/23 06:40:56;;;;;;;27.93;9.87;;;;;;;;;;5067080;28;20288;-78
2022/01/23 06:43:25;;;;;;;25.90;10.30;;;;;;;;;;5068868;28;20231;-77
2022/01/23 06:45:52;;;;;;;23.97;9.77;;;;;;;;;;5066847;28;20293;-77
2022/01/23 06:48:19;;;;;;;25.67;11.00;;;;;;;;;;5067531;28;20229;-77
2022/01/23 06:50:46;;;;;;;25.43;9.70;;;;;;;;;;5065757;28;20755;-77
2022/01/23 06:53:13;;;;;;;26.40;11.00;;;;;;;;;;5067318;28;20316;-77
2022/01/23 06:55:41;;;;;;;23.97;10.40;;;;;;;;;;5066800;28;20204;-77
2022/01/23 06:58:08;;;;;;;24.83;10.27;;;;;;;;;;5066108;28;20617;-77
2022/01/23 07:00:36;;;;;;;23.83;9.60;;;;;;;;;;5066379;28;20752;-77
2022/01/23 07:03:03;;;;;;;20.43;8.67;;;;;;;;;;5067192;28;20221;-77
2022/01/23 07:05:31;;;;;;;28.87;10.50;;;;;;;;;;5066094;28;20724;-76
2022/01/23 07:07:58;;;;;;;22.57;9.63;;;;;;;;;;5068572;28;20210;-77
2022/01/23 07:10:25;;;;;;;24.07;9.43;;;;;;;;;;5068877;28;20217;-76
2022/01/23 07:12:52;;;;;;;23.27;9.40;;;;;;;;;;5066841;28;20263;-77
2022/01/23 07:15:20;;;;;;;29.83;9.77;;;;;;;;;;5066781;28;20206;-76
2022/01/23 07:17:48;;;;;;;25.40;9.60;;;;;;;;;;5067377;28;20226;-76
2022/01/23 07:20:15;;;;;;;24.43;9.23;;;;;;;;;;5069467;28;20287;-77
2022/01/23 07:22:43;;;;;;;21.70;8.37;;;;;;;;;;5063415;28;20225;-77
2022/01/23 07:25:10;;;;;;;24.00;9.03;;;;;;;;;;5067185;28;20301;-77
2022/01/23 07:27:43;;;;;;;25.57;9.80;;;;;;;;;;5063131;28;20305;-77
2022/01/23 07:30:23;;;;;;;27.17;9.50;;;;;;;;;;5067880;28;20293;-77
2022/01/23 07:32:51;;;;;;;27.67;9.00;;;;;;;;;;5066493;28;20280;-77
2022/01/23 07:35:19;;;;;;;25.97;9.20;;;;;;;;;;5067828;28;20289;-77
2022/01/23 07:37:46;;;;;;;25.93;9.27;;;;;;;;;;5067004;28;20249;-77
2022/01/23 07:40:13;;;;;;;25.57;8.70;;;;;;;;;;5062886;28;20261;-77
2022/01/23 07:42:41;;;;;;;23.10;8.93;;;;;;;;;;5067018;28;20310;-77
2022/01/23 07:45:08;;;;;;;28.40;9.40;;;;;;;;;;5063129;28;20191;-76
2022/01/23 07:47:35;;;;;;;27.60;9.33;;;;;;;;;;5066388;28;20242;-77
2022/01/23 07:50:06;;;;;;;23.47;8.80;;;;;;;;;;5063863;28;20291;-78
2022/01/23 07:52:35;;;;;;;20.23;7.83;;;;;;;;;;5063875;28;20233;-77
2022/01/23 07:55:03;;;;;;;22.17;7.30;;;;;;;;;;5063468;28;20284;-77
2022/01/23 07:57:30;;;;;;;23.90;8.83;;;;;;;;;;5065970;28;20268;-77
2022/01/23 07:59:57;;;;;;;29.13;9.37;;;;;;;;;;5063162;28;21483;-77
2022/01/23 08:02:24;;;;;;;25.10;8.73;;;;;;;;;;5063717;28;20298;-77
2022/01/23 08:04:52;;;;;;;22.87;7.70;;;;;;;;;;5065570;28;20299;-77
2022/01/23 08:07:31;;;;;;;24.50;8.70;;;;;;;;;;5063757;28;20298;-77
2022/01/23 08:09:58;;;;;;;24.10;8.33;;;;;;;;;;5063682;28;20210;-77
2022/01/23 08:12:25;;;;;;;21.47;8.50;;;;;;;;;;5066953;28;20661;-77
2022/01/23 08:14:52;;;;;;;24.17;8.50;;;;;;;;;;5063331;28;20202;-77
2022/01/23 08:17:24;;;;;;;21.73;8.13;;;;;;;;;;5058564;28;20313;-76
2022/01/23 08:19:51;;;;;;;26.87;8.50;;;;;;;;;;5064008;28;20756;-78
2022/01/23 08:22:18;;;;;;;25.60;8.43;;;;;;;;;;5064892;28;20289;-76
2022/01/23 08:24:47;;;;;;;20.40;6.97;;;;;;;;;;5062122;28;20242;-77
2022/01/23 08:27:14;;;;;;;25.43;8.67;;;;;;;;;;5064352;28;20310;-77
2022/01/23 08:29:41;;;;;;;23.13;7.60;;;;;;;;;;5063649;28;20280;-77
2022/01/23 08:32:09;;;;;;;23.37;8.47;;;;;;;;;;5066960;28;20251;-77
2022/01/23 08:34:37;;;;;;;23.13;9.10;;;;;;;;;;5064886;28;20353;-77
2022/01/23 08:37:04;;;;;;;26.77;9.70;;;;;;;;;;5065919;28;20312;-77
2022/01/23 08:39:34;;;;;;;23.17;8.63;;;;;;;;;;5064000;28;20213;-77
2022/01/23 08:42:03;;;;;;;19.83;8.20;;;;;;;;;;5067425;28;20289;-77
2022/01/23 08:44:31;;;;;;;27.00;9.20;;;;;;;;;;5062767;28;20344;-78
2022/01/23 08:46:58;;;;;;;25.37;9.83;;;;;;;;;;5060050;28;20202;-78
2022/01/23 08:49:26;;;;;;;24.67;10.53;;;;;;;;;;5062138;28;20202;-78
2022/01/23 08:51:55;;;;;;;22.70;9.03;;;;;;;;;;5063842;28;20297;-78
2022/01/23 08:54:22;;;;;;;25.70;9.30;;;;;;;;;;5066457;28;20234;-78
2022/01/23 08:56:49;;;;;;;26.50;10.40;;;;;;;;;;5062757;28;20264;-78
2022/01/23 08:59:18;;;;;;;27.93;10.77;;;;;;;;;;5061751;28;20295;-78
2022/01/23 09:01:45;;;;;;;24.20;10.30;;;;;;;;;;5061252;28;20238;-78
2022/01/23 09:04:15;;;;;;;27.47;10.97;;;;;;;;;;5059470;28;20683;-78
2022/01/23 09:06:43;;;;;;;24.57;10.43;;;;;;;;;;5066087;28;20206;-78
2022/01/23 09:09:15;;;;;;;25.57;9.93;;;;;;;;;;5068205;28;20203;-78
2022/01/23 09:11:54;;;;;;;23.20;10.13;;;;;;;;;;5063947;28;20220;-78
2022/01/23 09:14:23;;;;;;;19.30;8.97;;;;;;;;;;5065644;28;20313;-78
2022/01/23 09:16:51;;;;;;;22.00;9.33;;;;;;;;;;5064993;28;20215;-78
2022/01/23 09:19:19;;;;;;;21.57;9.37;;;;;;;;;;5064053;28;21203;-78
2022/01/23 09:21:49;;;;;;;20.67;9.63;;;;;;;;;;5059875;28;22080;-78
2022/01/23 09:24:16;;;;;;;25.87;10.67;;;;;;;;;;5061237;28;20232;-78
2022/01/23 09:26:45;;;;;;;24.80;9.87;;;;;;;;;;5061623;28;20202;-78
2022/01/23 09:29:18;;;;;;;20.73;9.00;;;;;;;;;;5062263;28;20742;-78
2022/01/23 09:31:49;;;;;;;21.43;9.10;;;;;;;;;;5065484;28;20586;-78
2022/01/23 09:34:16;;;;;;;22.70;9.40;;;;;;;;;;5062840;28;20241;-78
2022/01/23 09:36:43;;;;;;;19.67;8.60;;;;;;;;;;5063051;28;20233;-78
2022/01/23 09:39:15;;;;;;;23.13;9.50;;;;;;;;;;5057954;28;20209;-78
2022/01/23 09:41:43;;;;;;;24.13;10.20;;;;;;;;;;5059000;28;20239;-78
2022/01/23 09:44:10;;;;;;;21.87;10.23;;;;;;;;;;5058950;28;20233;-78
2022/01/23 09:46:38;;;;;;;21.13;10.33;;;;;;;;;;5058565;28;20224;-78
2022/01/23 09:49:07;;;;;;;22.33;9.70;;;;;;;;;;5054455;28;20341;-78
2022/01/23 09:51:35;;;;;;;22.63;10.23;;;;;;;;;;5062108;28;20724;-78
2022/01/23 09:54:03;;;;;;;20.87;8.93;;;;;;;;;;5060351;28;20304;-78
2022/01/23 09:56:33;;;;;;;22.77;10.03;;;;;;;;;;5065013;28;20681;-77
2022/01/23 09:59:01;;;;;;;20.83;9.60;;;;;;;;;;5057828;28;20244;-77
2022/01/23 10:01:28;;;;;;;22.60;9.53;;;;;;;;;;5054514;28;20205;-77
2022/01/23 10:03:56;;;;;;;20.97;9.50;;;;;;;;;;5051378;28;20226;-77
2022/01/23 10:06:24;;;;;;;23.87;10.93;;;;;;;;;;5056307;28;20727;-77
2022/01/23 10:08:52;;;;;;;23.90;11.37;;;;;;;;;;5059438;28;20490;-77
2022/01/23 10:11:19;;;;;;;26.10;10.73;;;;;;;;;;5062142;28;20237;-77
2022/01/23 10:13:48;;;;;;;22.07;10.83;;;;;;;;;;5060308;28;20218;-78
2022/01/23 10:16:16;;;;;;;23.13;10.57;;;;;;;;;;5060542;28;20669;-78
2022/01/23 10:18:43;;;;;;;23.00;9.20;;;;;;;;;;5056747;28;20226;-78
2022/01/23 10:21:12;;;;;;;22.23;9.77;;;;;;;;;;5061053;28;20203;-78
2022/01/23 10:23:40;;;;;;;19.53;9.20;;;;;;;;;;5061170;28;20227;-78
2022/01/23 10:26:07;;;;;;;21.70;10.10;;;;;;;;;;5061551;28;20569;-78
2022/01/23 10:28:36;;;;;;;21.77;9.90;;;;;;;;;;5063653;28;20229;-78
2022/01/23 10:31:04;;;;;;;20.70;9.13;;;;;;;;;;5059180;28;20564;-78
2022/01/23 10:33:32;;;;;;;20.30;9.40;;;;;;;;;;5059766;28;20728;-78
2022/01/23 10:36:01;;;;;;;18.20;8.97;;;;;;;;;;5064197;28;20213;-78
2022/01/23 10:38:29;;;;;;;17.13;8.10;;;;;;;;;;5062520;28;20313;-78
2022/01/23 10:41:31;;;;;;;18.00;7.67;;;;;;;;;;5060711;28;20309;-78
2022/01/23 10:47:28;;;;;;;14.27;6.87;;;;;;;;;;5060901;28;20288;-78
2022/01/23 10:49:56;;;;;;;13.00;6.17;;;;;;;;;;5061784;28;20210;-78
2022/01/23 10:52:27;;;;;;;13.83;6.67;;;;;;;;;;5055953;28;20228;-78
2022/01/23 10:54:54;;;;;;;10.90;5.60;;;;;;;;;;5059249;28;20203;-78
2022/01/23 10:57:23;;;;;;;12.90;5.70;;;;;;;;;;5059794;28;20317;-77
2022/01/23 10:59:52;;;;;;;9.90;5.00;;;;;;;;;;5059677;28;20573;-77
2022/01/23 11:02:22;;;;;;;9.37;4.20;;;;;;;;;;5062568;28;20624;-77
2022/01/23 11:04:53;;;;;;;8.90;4.23;;;;;;;;;;5055336;28;20213;-77
2022/01/23 11:07:21;;;;;;;9.77;3.70;;;;;;;;;;5062134;28;20199;-77
2022/01/23 11:09:48;;;;;;;6.97;3.57;;;;;;;;;;5057362;28;20210;-77
2022/01/23 11:12:41;;;;;;;3.77;2.10;;;;;;;;;;5060755;28;20203;-77
2022/01/23 11:17:55;;;;;;;3.80;2.03;;;;;;;;;;5059650;28;20233;-77
2022/01/23 11:20:37;;;;;;;4.57;2.27;;;;;;;;;;5063524;28;20202;-77
2022/01/23 11:23:11;;;;;;;1.73;0.70;;;;;;;;;;5068416;28;20316;-77
2022/01/23 11:25:39;;;;;;;2.27;0.53;;;;;;;;;;5066142;28;20217;-77
2022/01/23 11:28:07;;;;;;;1.30;0.40;;;;;;;;;;5068348;28;20732;-77
2022/01/23 11:30:39;;;;;;;0.87;0.50;;;;;;;;;;5066240;28;20653;-77
2022/01/23 11:33:08;;;;;;;1.37;0.80;;;;;;;;;;5060559;28;20253;-77
2022/01/23 11:35:36;;;;;;;0.93;0.60;;;;;;;;;;5059970;28;20290;-77
2022/01/23 11:38:09;;;;;;;0.80;0.60;;;;;;;;;;5062571;28;20647;-77
2022/01/23 11:50:34;;;;;;;1.40;0.80;;;;;;;;;;5062606;28;20214;-77
2022/01/23 11:54:37;;;;;;;0.90;0.40;;;;;;;;;;5065203;28;20244;-77
2022/01/23 11:57:04;;;;;;;2.03;0.53;;;;;;;;;;5061120;28;20234;-77
2022/01/23 11:59:41;;;;;;;1.30;0.67;;;;;;;;;;5066463;28;20229;-77
2022/01/23 12:02:26;;;;;;;1.60;0.97;;;;;;;;;;5065340;28;20214;-78
2022/01/23 12:05:09;;;;;;;0.80;0.60;;;;;;;;;;5062842;28;20220;-77
2022/01/23 12:07:36;;;;;;;2.17;0.87;;;;;;;;;;5048595;28;20275;-77
2022/01/23 12:10:18;;;;;;;1.73;0.80;;;;;;;;;;5065486;28;20206;-77
2022/01/23 12:12:47;;;;;;;2.43;0.60;;;;;;;;;;5061237;28;20227;-77
2022/01/23 12:18:14;;;;;;;1.10;0.70;;;;;;;;;;5057281;28;20348;-77
2022/01/23 12:20:42;;;;;;;2.13;0.73;;;;;;;;;;5064863;28;20202;-78
2022/01/23 12:23:10;;;;;;;1.00;0.70;;;;;;;;;;5062874;28;20237;-77
2022/01/23 12:25:41;;;;;;;1.20;0.70;;;;;;;;;;5054784;28;20206;-77
2022/01/23 12:28:10;;;;;;;2.70;1.27;;;;;;;;;;5061679;28;20195;-77
2022/01/23 12:30:40;;;;;;;0.97;0.80;;;;;;;;;;5061360;28;20213;-77
2022/01/23 12:33:28;;;;;;;2.03;0.90;;;;;;;;;;5059340;28;20311;-77
2022/01/23 12:35:56;;;;;;;2.40;0.97;;;;;;;;;;5067167;28;20194;-78
2022/01/23 12:38:28;;;;;;;4.57;0.80;;;;;;;;;;5060256;28;20353;-77
2022/01/23 12:40:56;;;;;;;1.10;0.60;;;;;;;;;;5062185;28;20293;-77
2022/01/23 12:43:24;;;;;;;4.13;0.93;;;;;;;;;;5056211;28;20257;-77
2022/01/23 12:45:55;;;;;;;2.43;1.00;;;;;;;;;;5056624;28;20195;-77
2022/01/23 12:48:47;;;;;;;1.37;0.87;;;;;;;;;;5061491;28;20217;-77
2022/01/23 12:51:33;;;;;;;3.20;1.07;;;;;;;;;;5067817;28;20214;-78
2022/01/23 12:54:24;;;;;;;1.43;0.87;;;;;;;;;;5063712;28;20317;-77
2022/01/23 12:56:52;;;;;;;1.40;0.67;;;;;;;;;;5056760;28;20206;-77
2022/01/23 12:59:24;;;;;;;2.30;1.00;;;;;;;;;;5063256;28;20696;-77
2022/01/23 13:01:59;;;;;;;1.20;0.70;;;;;;;;;;5061500;28;20696;-77
2022/01/23 13:04:31;;;;;;;2.37;0.67;;;;;;;;;;5060232;28;20264;-77
2022/01/23 13:07:05;;;;;;;2.17;0.70;;;;;;;;;;5064035;28;20203;-78
2022/01/23 13:09:39;;;;;;;1.37;0.73;;;;;;;;;;5060451;28;20250;-78
2022/01/23 13:12:11;;;;;;;1.00;0.60;;;;;;;;;;5063213;28;20214;-77
2022/01/23 13:14:48;;;;;;;2.40;0.80;;;;;;;;;;5057403;28;20217;-77
2022/01/23 13:17:36;;;;;;;2.30;0.90;;;;;;;;;;5058730;28;20218;-77
2022/01/23 13:31:07;;;;;;;0.93;0.63;;;;;;;;;;5060843;28;20202;-77
2022/01/23 13:33:38;;;;;;;1.50;0.60;;;;;;;;;;5059452;28;20233;-77
2022/01/23 13:36:08;;;;;;;2.77;0.90;;;;;;;;;;5062075;28;20209;-77
2022/01/23 13:38:36;;;;;;;4.90;2.97;;;;;;;;;;5061507;28;20235;-78
2022/01/23 13:41:14;;;;;;;5.80;2.70;;;;;;;;;;5064499;28;20198;-77
2022/01/23 13:52:26;;;;;;;1.47;1.10;;;;;;;;;;5060520;28;20218;-77
2022/01/23 13:57:52;;;;;;;3.27;1.33;;;;;;;;;;5066603;28;20730;-77
2022/01/23 14:00:25;;;;;;;1.53;1.03;;;;;;;;;;5064517;28;20735;-77
2022/01/23 14:02:53;;;;;;;2.80;0.90;;;;;;;;;;5063909;28;20712;-77
2022/01/23 14:05:23;;;;;;;1.83;1.03;;;;;;;;;;5064691;28;20210;-77
2022/01/23 14:07:51;;;;;;;1.97;1.10;;;;;;;;;;5061724;28;20203;-77
2022/01/23 14:10:20;;;;;;;1.70;1.10;;;;;;;;;;5060745;28;20758;-77
2022/01/23 14:12:48;;;;;;;3.37;1.40;;;;;;;;;;5061461;28;20815;-77
2022/01/23 14:15:16;;;;;;;1.80;1.10;;;;;;;;;;5057735;28;20237;-77
2022/01/23 14:17:44;;;;;;;1.50;0.93;;;;;;;;;;5059808;28;20260;-77
2022/01/23 14:20:13;;;;;;;2.27;1.20;;;;;;;;;;5061069;28;20789;-77
2022/01/23 14:22:43;;;;;;;2.17;1.07;;;;;;;;;;5061076;28;20244;-77
2022/01/23 14:25:12;;;;;;;2.70;0.90;;;;;;;;;;5059854;28;20225;-77
2022/01/23 14:27:40;;;;;;;2.60;1.10;;;;;;;;;;5059990;28;20194;-77
2022/01/23 14:30:08;;;;;;;2.17;1.17;;;;;;;;;;5061565;28;20238;-77
2022/01/23 14:32:43;;;;;;;1.83;1.10;;;;;;;;;;5056934;28;20319;-77
2022/01/23 14:35:12;;;;;;;2.70;1.60;;;;;;;;;;5060904;28;20298;-77
2022/01/23 14:37:39;;;;;;;3.07;1.20;;;;;;;;;;5060081;28;20210;-77
2022/01/23 14:40:12;;;;;;;2.37;1.10;;;;;;;;;;5060411;28;20222;-77
2022/01/23 14:42:40;;;;;;;2.60;1.40;;;;;;;;;;5062433;28;20233;-77
2022/01/23 14:45:07;;;;;;;2.43;1.10;;;;;;;;;;5058517;28;20306;-77
2022/01/23 14:47:36;;;;;;;2.97;1.20;;;;;;;;;;5058826;28;20289;-77
2022/01/23 14:50:06;;;;;;;1.70;1.10;;;;;;;;;;5063210;28;20648;-77
2022/01/23 14:52:33;;;;;;;1.50;1.07;;;;;;;;;;5059278;28;20244;-77
2022/01/23 14:55:00;;;;;;;4.87;1.90;;;;;;;;;;5058708;28;20284;-77
2022/01/23 14:57:32;;;;;;;7.03;1.33;;;;;;;;;;5064576;28;20212;-77
2022/01/23 15:00:00;;;;;;;3.97;2.17;;;;;;;;;;5061847;28;20233;-77
2022/01/23 15:02:27;;;;;;;2.00;1.07;;;;;;;;;;5062194;28;20213;-77
2022/01/23 15:04:58;;;;;;;3.00;0.97;;;;;;;;;;5063172;28;20289;-77
2022/01/23 15:07:25;;;;;;;12.47;2.10;;;;;;;;;;5065347;28;20583;-76
2022/01/23 15:09:53;;;;;;;3.93;1.80;;;;;;;;;;5065029;28;20209;-77
2022/01/23 15:12:20;;;;;;;2.07;1.10;;;;;;;;;;5069617;28;20255;-76
2022/01/23 15:14:49;;;;;;;1.20;0.83;;;;;;;;;;5067584;28;20293;-76
2022/01/23 15:17:16;;;;;;;2.80;1.03;;;;;;;;;;5064670;28;20290;-77
2022/01/23 15:19:43;;;;;;;5.53;1.40;;;;;;;;;;5064616;28;20615;-77
2022/01/23 15:22:10;;;;;;;5.90;2.80;;;;;;;;;;5067019;28;20198;-77
2022/01/23 15:24:38;;;;;;;3.37;2.10;;;;;;;;;;5067226;28;20245;-76
2022/01/23 15:27:05;;;;;;;3.00;1.57;;;;;;;;;;5069447;28;20301;-77
2022/01/23 15:29:32;;;;;;;1.70;1.10;;;;;;;;;;5067299;28;20198;-77
2022/01/23 15:32:01;;;;;;;2.57;1.17;;;;;;;;;;5066427;28;20297;-77
2022/01/23 15:34:30;;;;;;;1.77;1.13;;;;;;;;;;5059155;28;20314;-75
2022/01/23 15:36:57;;;;;;;3.27;1.50;;;;;;;;;;5065260;28;20240;-77
2022/01/23 15:39:26;;;;;;;2.80;1.33;;;;;;;;;;5063651;28;20306;-76
2022/01/23 15:41:53;;;;;;;6.77;3.50;;;;;;;;;;5068454;28;20202;-77
2022/01/23 15:44:20;;;;;;;3.30;1.80;;;;;;;;;;5067942;28;20250;-77
2022/01/23 15:46:47;;;;;;;3.37;2.17;;;;;;;;;;5064467;28;20245;-77
2022/01/23 15:49:16;;;;;;;2.63;1.43;;;;;;;;;;5061932;28;20278;-76
2022/01/23 15:51:47;;;;;;;4.13;1.63;;;;;;;;;;5065164;28;20233;-77
2022/01/23 15:54:14;;;;;;;1.17;0.87;;;;;;;;;;5064898;28;20697;-76
2022/01/23 15:56:41;;;;;;;1.30;0.90;;;;;;;;;;5067871;28;20298;-76
2022/01/23 15:59:09;;;;;;;1.97;1.03;;;;;;;;;;5060838;28;20227;-76
2022/01/23 16:01:37;;;;;;;1.30;0.80;;;;;;;;;;5058324;28;20199;-75
2022/01/23 16:04:04;;;;;;;3.23;1.90;;;;;;;;;;5061091;28;20230;-76
2022/01/23 16:06:32;;;;;;;1.47;1.00;;;;;;;;;;5061261;28;21261;-77
2022/01/23 16:09:00;;;;;;;2.00;1.27;;;;;;;;;;5058236;28;20546;-77
2022/01/23 16:11:27;;;;;;;2.03;0.90;;;;;;;;;;5061121;28;20225;-77
2022/01/23 16:13:54;;;;;;;2.30;1.00;;;;;;;;;;5063353;28;20546;-77
2022/01/23 16:16:21;;;;;;;2.77;1.53;;;;;;;;;;5059706;28;20617;-77
2022/01/23 16:18:48;;;;;;;1.37;1.00;;;;;;;;;;5060682;28;20231;-76
2022/01/23 16:21:17;;;;;;;3.93;1.60;;;;;;;;;;5064499;28;20228;-75
2022/01/23 16:23:45;;;;;;;1.97;1.33;;;;;;;;;;5064417;28;20224;-76
2022/01/23 16:26:13;;;;;;;5.93;3.13;;;;;;;;;;5065520;28;20229;-77
2022/01/23 16:28:40;;;;;;;3.43;2.07;;;;;;;;;;5063537;28;20692;-76
2022/01/23 16:31:08;;;;;;;1.57;0.93;;;;;;;;;;5059838;28;20713;-76
2022/01/23 16:33:35;;;;;;;4.87;2.00;;;;;;;;;;5066154;28;20234;-77
2022/01/23 16:36:02;;;;;;;1.47;1.10;;;;;;;;;;5057133;28;20211;-77
2022/01/23 16:38:29;;;;;;;9.80;5.37;;;;;;;;;;5062246;28;20472;-77
2022/01/23 16:40:58;;;;;;;7.93;4.70;;;;;;;;;;5072197;28;20318;-77
2022/01/23 16:43:27;;;;;;;4.37;1.30;;;;;;;;;;5069011;28;20229;-77
2022/01/23 16:45:54;;;;;;;1.90;0.93;;;;;;;;;;5065351;28;20579;-76
2022/01/23 16:48:22;;;;;;;11.40;4.13;;;;;;;;;;5063115;28;20550;-77
2022/01/23 16:50:49;;;;;;;5.23;1.50;;;;;;;;;;5062658;28;20306;-76
2022/01/23 16:53:16;;;;;;;6.73;3.60;;;;;;;;;;5058188;28;20332;-76
2022/01/23 16:55:44;;;;;;;2.83;1.20;;;;;;;;;;5065767;28;20195;-77
2022/01/23 16:58:12;;;;;;;3.57;0.83;;;;;;;;;;5063668;28;20203;-77
2022/01/23 17:00:39;;;;;;;2.23;1.30;;;;;;;;;;5063684;28;20669;-76
2022/01/23 17:03:07;;;;;;;2.17;1.10;;;;;;;;;;5066854;28;20248;-76
2022/01/23 17:05:34;;;;;;;3.00;1.30;;;;;;;;;;5063494;28;20202;-77
2022/01/23 17:08:01;;;;;;;3.53;0.90;;;;;;;;;;5061991;28;20198;-76
2022/01/23 17:10:28;;;;;;;2.60;1.30;;;;;;;;;;5064798;28;20204;-76
2022/01/23 17:12:55;;;;;;;2.43;1.10;;;;;;;;;;5065818;28;20276;-76
2022/01/23 17:15:24;;;;;;;3.77;1.50;;;;;;;;;;5067887;28;20209;-77
2022/01/23 17:17:51;;;;;;;4.97;1.60;;;;;;;;;;5064889;28;20648;-77
2022/01/23 17:20:20;;;;;;;4.07;1.27;;;;;;;;;;5064589;28;20870;-77
2022/01/23 17:22:47;;;;;;;2.40;1.27;;;;;;;;;;5067587;28;20218;-76
2022/01/23 17:25:15;;;;;;;2.33;1.00;;;;;;;;;;5063786;28;20301;-77
2022/01/23 17:27:44;;;;;;;2.13;1.10;;;;;;;;;;5065701;28;20698;-76